createdAt,value
2023-01-11T00:00:39.832Z,44.16
2023-01-11T00:03:07.025Z,44.15
2023-01-11T00:05:44.225Z,44.26
2023-01-11T00:08:11.842Z,43.93
2023-01-11T00:10:39.816Z,43.59
2023-01-11T00:13:06.878Z,43.43
2023-01-11T00:15:36.104Z,43.41
2023-01-11T00:18:03.148Z,43.61
2023-01-11T00:20:29.780Z,43.67
2023-01-11T00:22:56.311Z,44.00
2023-01-11T00:25:22.901Z,43.81
2023-01-11T00:27:49.697Z,43.82
2023-01-11T00:30:17.802Z,44.37
2023-01-11T00:32:44.434Z,44.55
2023-01-11T00:35:10.969Z,44.59
2023-01-11T00:37:37.619Z,44.74
2023-01-11T00:40:04.625Z,44.26
2023-01-11T00:42:51.517Z,44.64
2023-01-11T00:45:36.837Z,44.66
2023-01-11T00:48:05.968Z,44.61
2023-01-11T00:50:38.017Z,44.83
2023-01-11T00:53:05.363Z,45.12
2023-01-11T00:55:32.007Z,44.84
2023-01-11T00:57:59.240Z,44.94
2023-01-11T01:00:26.859Z,45.12
2023-01-11T01:02:53.656Z,45.51
2023-01-11T01:05:20.510Z,45.42
2023-01-11T01:07:47.430Z,45.13
2023-01-11T01:10:16.053Z,44.77
2023-01-11T01:13:01.206Z,44.91
2023-01-11T01:15:28.094Z,44.06
2023-01-11T01:17:55.814Z,44.63
2023-01-11T01:20:24.177Z,44.22
2023-01-11T01:22:50.839Z,44.87
2023-01-11T01:25:17.832Z,44.66
2023-01-11T01:27:44.545Z,44.49
2023-01-11T01:30:11.633Z,44.68
2023-01-11T01:32:38.140Z,44.39
2023-01-11T01:35:05.057Z,44.69
2023-01-11T01:37:31.835Z,46.93
2023-01-11T01:39:58.422Z,48.09
2023-01-11T01:42:25.259Z,47.84
2023-01-11T01:44:54.744Z,49.35
2023-01-11T01:47:27.107Z,51.57
2023-01-11T01:49:54.270Z,52.14
2023-01-11T01:52:21.433Z,54.96
2023-01-11T01:54:49.294Z,54.36
2023-01-11T01:57:26.848Z,56.86
2023-01-11T01:59:57.056Z,56.15
2023-01-11T02:02:25.067Z,55.68
2023-01-11T02:04:56.276Z,55.80
2023-01-11T02:07:28.756Z,55.77
2023-01-11T02:10:04.801Z,55.54
2023-01-11T02:12:43.474Z,55.60
2023-01-11T02:15:11.555Z,55.40
2023-01-11T02:17:38.100Z,55.47
2023-01-11T02:20:25.354Z,55.57
2023-01-11T02:23:20.421Z,55.49
2023-01-11T02:26:27.266Z,55.57
2023-01-11T02:29:35.806Z,55.83
2023-01-11T02:32:23.357Z,57.04
2023-01-11T02:35:16.865Z,56.00
2023-01-11T02:38:04.161Z,56.53
2023-01-11T02:40:42.228Z,55.90
2023-01-11T02:43:52.105Z,56.60
2023-01-11T02:46:40.564Z,57.23
2023-01-11T02:49:42.669Z,57.26
2023-01-11T02:52:14.415Z,58.27
2023-01-11T02:54:45.323Z,57.28
2023-01-11T02:57:14.008Z,57.45
2023-01-11T02:59:41.898Z,56.81
2023-01-11T03:02:08.493Z,57.18
2023-01-11T03:04:37.208Z,57.84
2023-01-11T03:07:24.108Z,57.65
2023-01-11T03:10:22.118Z,59.06
2023-01-11T03:12:59.525Z,57.31
2023-01-11T03:16:00.164Z,56.76
2023-01-11T03:18:37.361Z,56.28
2023-01-11T03:21:39.058Z,56.45
2023-01-11T03:24:48.032Z,58.63
2023-01-11T03:27:21.746Z,56.53
2023-01-11T03:29:54.161Z,56.42
2023-01-11T03:33:13.201Z,56.01
2023-01-11T03:35:42.284Z,55.96
2023-01-11T03:38:20.326Z,55.76
2023-01-11T03:40:55.182Z,55.53
2023-01-11T03:43:24.101Z,55.37
2023-01-11T03:46:14.681Z,55.20
2023-01-11T03:48:57.553Z,55.05
2023-01-11T03:51:27.920Z,55.50
2023-01-11T03:53:58.973Z,55.00
2023-01-11T03:56:33.878Z,55.21
2023-01-11T03:59:01.583Z,55.68
2023-01-11T04:01:28.245Z,55.37
2023-01-11T04:03:54.832Z,54.91
2023-01-11T04:06:22.253Z,54.81
2023-01-11T04:08:49.020Z,55.43
2023-01-11T04:11:15.692Z,54.80
2023-01-11T04:13:42.248Z,55.20
2023-01-11T04:16:08.869Z,55.07
2023-01-11T04:18:35.490Z,54.45
2023-01-11T04:21:02.099Z,54.72
2023-01-11T04:23:28.637Z,54.59
2023-01-11T04:25:55.258Z,54.56
2023-01-11T04:28:21.812Z,53.75
2023-01-11T04:30:48.373Z,54.21
2023-01-11T04:33:14.916Z,54.05
2023-01-11T04:35:42.099Z,54.07
2023-01-11T04:38:08.638Z,53.65
2023-01-11T04:40:35.224Z,53.76
2023-01-11T04:43:02.402Z,53.46
2023-01-11T04:45:29.888Z,53.26
2023-01-11T04:47:57.457Z,53.46
2023-01-11T04:50:25.512Z,52.76
2023-01-11T04:52:52.491Z,52.65
2023-01-11T04:55:19.808Z,52.53
2023-01-11T04:57:47.124Z,52.57
2023-01-11T05:00:15.727Z,52.72
2023-01-11T05:02:42.255Z,52.74
2023-01-11T05:05:10.739Z,52.54
2023-01-11T05:07:38.760Z,52.65
2023-01-11T05:10:06.190Z,52.53
2023-01-11T05:12:32.713Z,52.33
2023-01-11T05:14:59.341Z,52.21
2023-01-11T05:17:25.908Z,52.22
2023-01-11T05:19:52.490Z,52.05
2023-01-11T05:22:19.021Z,52.01
2023-01-11T05:24:45.586Z,52.38
2023-01-11T05:27:12.180Z,52.22
2023-01-11T05:29:38.694Z,51.90
2023-01-11T05:32:05.750Z,51.85
2023-01-11T05:34:32.487Z,51.84
2023-01-11T05:36:59.114Z,51.50
2023-01-11T05:39:25.793Z,51.34
2023-01-11T05:41:52.522Z,51.51
2023-01-11T05:44:37.862Z,51.34
2023-01-11T05:47:04.545Z,51.48
2023-01-11T05:49:31.111Z,51.21
2023-01-11T05:51:57.666Z,51.24
2023-01-11T05:54:24.269Z,51.20
2023-01-11T05:56:50.819Z,51.40
2023-01-11T05:59:17.480Z,51.13
2023-01-11T06:01:44.060Z,51.13
2023-01-11T06:04:10.730Z,50.65
2023-01-11T06:06:37.385Z,50.58
2023-01-11T06:09:04.002Z,50.52
2023-01-11T06:11:30.758Z,50.03
2023-01-11T06:13:57.392Z,49.90
2023-01-11T06:16:24.111Z,49.60
2023-01-11T06:18:52.391Z,49.79
2023-01-11T06:21:19.830Z,49.67
2023-01-11T06:23:48.311Z,49.90
2023-01-11T06:26:16.638Z,48.92
2023-01-11T06:28:43.915Z,48.79
2023-01-11T06:31:10.644Z,49.16
2023-01-11T06:33:37.640Z,48.45
2023-01-11T06:36:07.708Z,48.76
2023-01-11T06:38:34.680Z,48.60
2023-01-11T06:41:03.574Z,49.01
2023-01-11T06:43:31.402Z,48.55
2023-01-11T06:45:59.192Z,48.79
2023-01-11T06:48:26.927Z,48.97
2023-01-11T06:50:55.873Z,48.64
2023-01-11T06:53:23.620Z,48.51
2023-01-11T06:55:52.190Z,48.59
2023-01-11T06:58:19.111Z,48.32
2023-01-11T07:00:46.274Z,48.09
2023-01-11T07:03:13.242Z,48.10
2023-01-11T07:05:40.402Z,48.28
2023-01-11T07:08:06.969Z,48.28
2023-01-11T07:10:33.638Z,48.12
2023-01-11T07:13:00.294Z,48.21
2023-01-11T07:15:26.953Z,48.34
2023-01-11T07:17:58.606Z,47.81
2023-01-11T07:20:26.479Z,48.02
2023-01-11T07:22:56.937Z,47.94
2023-01-11T07:25:23.596Z,48.24
2023-01-11T07:27:54.880Z,47.74
2023-01-11T07:30:21.453Z,48.04
2023-01-11T07:32:47.964Z,48.08
2023-01-11T07:35:14.548Z,48.40
2023-01-11T07:37:41.493Z,48.89
2023-01-11T07:40:08.759Z,49.41
2023-01-11T07:42:53.658Z,49.57
2023-01-11T07:45:20.208Z,49.67
2023-01-11T07:47:51.147Z,49.61
2023-01-11T07:50:17.972Z,49.20
2023-01-11T07:52:48.467Z,49.13
2023-01-11T07:55:16.131Z,48.43
2023-01-11T07:57:42.810Z,47.42
2023-01-11T08:00:10.254Z,46.84
2023-01-11T08:02:39.615Z,46.59
2023-01-11T08:05:06.639Z,46.80
2023-01-11T08:07:33.256Z,46.58
2023-01-11T08:09:59.781Z,47.00
2023-01-11T08:12:45.000Z,47.11
2023-01-11T08:15:14.049Z,46.78
2023-01-11T08:17:40.608Z,46.85
2023-01-11T08:20:07.339Z,46.51
2023-01-11T08:22:34.231Z,46.52
2023-01-11T08:25:00.763Z,46.38
2023-01-11T08:27:27.295Z,45.88
2023-01-11T08:29:53.811Z,46.10
2023-01-11T08:32:20.308Z,45.50
2023-01-11T08:34:47.861Z,45.51
2023-01-11T08:37:14.466Z,45.16
2023-01-11T08:39:41.072Z,45.37
2023-01-11T08:42:07.650Z,45.10
2023-01-11T08:44:34.783Z,45.16
2023-01-11T08:47:03.187Z,45.55
2023-01-11T08:49:30.506Z,45.75
2023-01-11T08:51:57.295Z,45.02
2023-01-11T08:54:24.850Z,45.15
2023-01-11T08:56:51.396Z,44.88
2023-01-11T08:59:19.772Z,44.42
2023-01-11T09:01:46.459Z,44.52
2023-01-11T09:04:24.237Z,44.48
2023-01-11T09:06:52.533Z,43.65
2023-01-11T09:09:19.110Z,43.62
2023-01-11T09:11:56.521Z,43.69
2023-01-11T09:14:25.000Z,43.15
2023-01-11T09:16:52.956Z,43.34
2023-01-11T09:19:19.775Z,43.15
2023-01-11T09:21:46.625Z,43.52
2023-01-11T09:24:14.210Z,42.66
2023-01-11T09:26:43.303Z,43.29
2023-01-11T09:29:11.144Z,43.57
2023-01-11T09:31:38.116Z,42.92
2023-01-11T09:34:05.400Z,42.67
2023-01-11T09:36:33.255Z,42.54
2023-01-11T09:39:02.143Z,42.41
2023-01-11T09:41:50.829Z,42.38
2023-01-11T09:44:23.182Z,41.52
2023-01-11T09:46:56.004Z,41.60
2023-01-11T09:49:28.109Z,41.71
2023-01-11T09:52:13.103Z,41.40
2023-01-11T09:54:39.991Z,41.12
2023-01-11T09:57:23.719Z,40.96
2023-01-11T09:59:59.002Z,40.76
2023-01-11T10:02:44.725Z,40.58
2023-01-11T10:05:29.772Z,40.45
2023-01-11T10:18:22.405Z,38.54
2023-01-11T10:18:26.620Z,38.60
2023-01-11T10:20:41.612Z,38.44
2023-01-11T10:23:18.523Z,38.19
2023-01-11T10:25:51.492Z,38.08
2023-01-11T10:28:26.791Z,38.33
2023-01-11T10:30:55.848Z,37.76
2023-01-11T10:34:00.352Z,37.65
2023-01-11T10:37:07.338Z,36.83
2023-01-11T10:40:34.977Z,36.69
2023-01-11T10:43:12.814Z,36.49
2023-01-11T10:45:53.229Z,37.31
2023-01-11T10:48:34.167Z,36.54
2023-01-11T10:51:13.223Z,35.72
2023-01-11T10:54:00.945Z,35.85
2023-01-11T10:56:27.466Z,35.32
2023-01-11T10:59:04.060Z,34.69
2023-01-11T11:01:45.139Z,34.67
2023-01-11T11:04:21.197Z,34.03
2023-01-11T11:07:15.651Z,33.63
2023-01-11T11:09:47.971Z,33.49
2023-01-11T11:12:36.802Z,32.44
2023-01-11T11:15:20.239Z,32.22
2023-01-11T11:17:50.756Z,30.99
2023-01-11T11:20:21.086Z,31.83
2023-01-11T11:22:52.585Z,31.50
2023-01-11T11:25:31.276Z,31.39
2023-01-11T11:28:14.588Z,31.63
2023-01-11T11:30:46.983Z,31.95
2023-01-11T11:33:13.987Z,32.27
2023-01-11T11:35:42.161Z,32.68
2023-01-11T11:38:22.020Z,32.68
2023-01-11T11:40:58.198Z,33.68
2023-01-11T11:43:27.004Z,33.88
2023-01-11T11:45:59.320Z,34.10
2023-01-11T11:48:28.985Z,33.91
2023-01-11T11:50:58.106Z,33.64
2023-01-11T11:53:43.111Z,33.54
2023-01-11T11:56:36.006Z,34.13
2023-01-11T11:59:09.666Z,34.13
2023-01-11T12:01:47.167Z,34.61
2023-01-11T12:04:24.048Z,34.62
2023-01-11T12:07:19.190Z,35.00
2023-01-11T12:09:56.777Z,34.81
2023-01-11T12:12:26.365Z,35.74
2023-01-11T12:15:09.159Z,35.76
2023-01-11T12:17:36.083Z,35.92
2023-01-11T12:20:02.730Z,35.89
2023-01-11T12:22:29.433Z,35.92
2023-01-11T12:25:21.536Z,35.97
2023-01-11T12:28:02.052Z,35.47
2023-01-11T12:30:46.364Z,35.55
2023-01-11T12:33:28.709Z,35.87
2023-01-11T12:36:05.335Z,36.05
2023-01-11T12:39:05.039Z,36.51
2023-01-11T12:41:50.317Z,36.75
2023-01-11T12:45:01.682Z,36.73
2023-01-11T12:47:42.791Z,36.18
2023-01-11T12:50:24.743Z,36.13
2023-01-11T12:53:03.664Z,36.66
2023-01-11T12:55:49.279Z,36.18
2023-01-11T12:58:24.288Z,36.14
2023-01-11T13:01:09.661Z,36.37
2023-01-11T13:03:45.296Z,36.33
2023-01-11T13:06:17.073Z,36.45
2023-01-11T13:08:56.171Z,36.63
2023-01-11T13:11:45.825Z,36.53
2023-01-11T13:14:43.773Z,36.84
2023-01-11T13:17:37.072Z,37.16
2023-01-11T13:20:21.998Z,37.17
2023-01-11T13:22:54.849Z,37.36
2023-01-11T13:25:28.479Z,37.14
2023-01-11T13:27:57.731Z,36.95
2023-01-11T13:30:25.217Z,36.94
2023-01-11T13:33:17.159Z,36.98
2023-01-11T13:36:01.792Z,36.95
2023-01-11T13:38:35.078Z,37.21
2023-01-11T13:41:18.457Z,36.82
2023-01-11T13:43:57.725Z,37.18
2023-01-11T13:46:34.848Z,37.06
2023-01-11T13:49:18.275Z,37.48
2023-01-11T13:51:56.906Z,37.84
2023-01-11T13:54:34.614Z,38.35
2023-01-11T13:57:06.964Z,38.20
2023-01-11T13:59:45.571Z,38.99
2023-01-11T14:02:39.631Z,39.97
2023-01-11T14:05:18.766Z,39.88
2023-01-11T14:08:06.920Z,40.92
2023-01-11T14:10:44.896Z,40.86
2023-01-11T14:13:14.301Z,41.91
2023-01-11T14:15:47.730Z,43.36
2023-01-11T14:18:38.276Z,45.82
2023-01-11T14:21:43.007Z,49.35
2023-01-11T14:24:11.391Z,51.24
2023-01-11T14:27:03.887Z,51.98
2023-01-11T14:29:39.187Z,51.73
2023-01-11T14:32:45.694Z,53.87
2023-01-11T14:35:18.766Z,55.47
2023-01-11T14:38:07.193Z,54.16
2023-01-11T14:40:51.448Z,55.87
2023-01-11T14:43:41.056Z,58.65
2023-01-11T14:46:19.351Z,59.38
2023-01-11T14:48:48.943Z,61.24
2023-01-11T14:51:34.328Z,58.76
2023-01-11T14:54:08.243Z,59.87
2023-01-11T14:56:46.445Z,62.10
2023-01-11T14:59:31.326Z,60.62
2023-01-11T15:02:04.232Z,60.31
2023-01-11T15:04:38.835Z,60.17
2023-01-11T15:07:43.817Z,62.37
2023-01-11T15:10:30.258Z,62.75
2023-01-11T15:12:58.224Z,64.08
2023-01-11T15:15:51.111Z,61.36
2023-01-11T15:18:24.077Z,61.63
2023-01-11T15:21:02.059Z,60.61
2023-01-11T15:23:37.461Z,62.02
2023-01-11T15:26:07.894Z,63.61
2023-01-11T15:28:55.403Z,62.90
2023-01-11T15:31:47.712Z,62.03
2023-01-11T15:34:23.824Z,62.00
2023-01-11T15:37:03.840Z,62.64
2023-01-11T15:39:54.326Z,61.70
2023-01-11T15:42:45.137Z,61.17
2023-01-11T15:45:11.602Z,61.23
2023-01-11T15:48:16.466Z,60.61
2023-01-11T15:50:45.982Z,61.45
2023-01-11T15:53:38.339Z,60.96
2023-01-11T15:56:41.777Z,61.97
2023-01-11T15:59:49.855Z,63.05
2023-01-11T16:02:40.952Z,62.38
2023-01-11T16:05:18.387Z,60.81
2023-01-11T16:07:50.215Z,62.30
2023-01-11T16:10:53.895Z,63.28
2023-01-11T16:13:48.540Z,63.28
2023-01-11T16:16:21.328Z,62.16
2023-01-11T16:18:58.393Z,62.87
2023-01-11T16:21:37.484Z,62.58
2023-01-11T16:24:17.454Z,63.45
2023-01-11T16:26:44.558Z,65.35
2023-01-11T16:29:18.332Z,63.64
2023-01-11T16:31:54.051Z,62.99
2023-01-11T16:34:20.724Z,63.16
2023-01-11T16:36:49.084Z,63.72
2023-01-11T16:39:22.995Z,64.68
2023-01-11T16:41:58.389Z,64.85
2023-01-11T16:44:33.839Z,67.19
2023-01-11T16:47:26.697Z,64.75
2023-01-11T16:50:20.788Z,66.00
2023-01-11T16:52:54.966Z,65.39
2023-01-11T16:55:26.737Z,65.63
2023-01-11T16:57:58.276Z,65.62
2023-01-11T17:00:35.956Z,66.57
2023-01-11T17:03:24.405Z,65.63
2023-01-11T17:05:56.888Z,68.13
2023-01-11T17:08:29.431Z,66.18
2023-01-11T17:11:04.295Z,66.42
2023-01-11T17:13:58.971Z,68.19
2023-01-11T17:16:38.187Z,66.33
2023-01-11T17:19:32.269Z,65.69
2023-01-11T17:22:17.054Z,68.94
2023-01-11T17:24:51.844Z,66.30
2023-01-11T17:27:28.199Z,67.68
2023-01-11T17:29:57.076Z,67.07
2023-01-11T17:32:37.819Z,65.42
2023-01-11T17:35:13.791Z,65.42
2023-01-11T17:37:41.149Z,65.22
2023-01-11T17:40:21.517Z,64.93
2023-01-11T17:43:07.262Z,65.27
2023-01-11T17:45:34.713Z,64.74
2023-01-11T17:48:13.343Z,65.47
2023-01-11T17:50:47.588Z,65.18
2023-01-11T17:53:18.131Z,67.96
2023-01-11T17:56:02.159Z,65.53
2023-01-11T17:58:36.319Z,66.42
2023-01-11T18:01:07.717Z,67.69
2023-01-11T18:03:44.998Z,66.55
2023-01-11T18:06:18.347Z,67.22
2023-01-11T18:08:53.459Z,66.96
2023-01-11T18:11:51.444Z,66.21
2023-01-11T18:14:41.386Z,66.58
2023-01-11T18:17:40.641Z,68.18
2023-01-11T18:20:16.106Z,67.74
2023-01-11T18:22:56.141Z,68.87
2023-01-11T18:25:24.753Z,68.48
2023-01-11T18:27:51.599Z,65.40
2023-01-11T18:30:30.289Z,66.72
2023-01-11T18:33:03.770Z,67.01
2023-01-11T18:35:30.725Z,64.55
2023-01-11T18:37:57.288Z,65.17
2023-01-11T18:40:23.818Z,65.99
2023-01-11T18:42:53.404Z,67.26
2023-01-11T18:45:21.802Z,66.52
2023-01-11T18:47:48.418Z,65.79
2023-01-11T18:50:14.999Z,67.01
2023-01-11T18:52:41.590Z,67.85
2023-01-11T18:55:11.503Z,65.87
2023-01-11T18:57:38.105Z,65.14
2023-01-11T19:00:05.019Z,66.06
2023-01-11T19:02:42.157Z,66.76
2023-01-11T19:05:14.784Z,64.87
2023-01-11T19:07:41.619Z,65.13
2023-01-11T19:10:09.375Z,65.20
2023-01-11T19:12:35.954Z,64.33
2023-01-11T19:15:02.538Z,65.10
2023-01-11T19:17:29.163Z,64.71
2023-01-11T19:19:55.735Z,63.82
2023-01-11T19:22:26.079Z,64.09
2023-01-11T19:24:53.811Z,64.77
2023-01-11T19:27:20.567Z,64.11
2023-01-11T19:29:47.252Z,64.02
2023-01-11T19:32:15.667Z,64.54
2023-01-11T19:34:42.747Z,63.54
2023-01-11T19:37:09.288Z,64.62
2023-01-11T19:39:36.286Z,64.17
2023-01-11T19:42:03.136Z,64.09
2023-01-11T19:44:31.129Z,63.04
2023-01-11T19:47:10.333Z,63.44
2023-01-11T19:49:38.987Z,63.98
2023-01-11T19:52:12.113Z,63.91
2023-01-11T19:54:42.926Z,63.81
2023-01-11T19:57:11.592Z,63.94
2023-01-11T19:59:38.273Z,65.19
2023-01-11T20:02:05.391Z,65.49
2023-01-11T20:04:32.523Z,64.82
2023-01-11T20:06:59.588Z,63.27
2023-01-11T20:09:26.157Z,62.87
2023-01-11T20:11:53.293Z,62.29
2023-01-11T20:14:20.247Z,61.81
2023-01-11T20:16:46.845Z,62.27
2023-01-11T20:19:13.434Z,62.39
2023-01-11T20:21:39.961Z,62.41
2023-01-11T20:24:06.871Z,62.04
2023-01-11T20:26:36.484Z,63.33
2023-01-11T20:29:03.599Z,63.54
2023-01-11T20:31:32.151Z,64.43
2023-01-11T20:34:00.803Z,64.34
2023-01-11T20:36:28.139Z,64.09
2023-01-11T20:38:55.782Z,64.52
2023-01-11T20:41:48.185Z,65.26
2023-01-11T20:44:24.969Z,64.93
2023-01-11T20:46:53.179Z,64.07
2023-01-11T20:49:25.778Z,63.81
2023-01-11T20:51:52.400Z,63.51
2023-01-11T20:54:19.337Z,63.59
2023-01-11T20:56:46.925Z,64.49
2023-01-11T20:59:17.229Z,63.28
2023-01-11T21:01:44.034Z,64.83
2023-01-11T21:04:11.740Z,63.25
2023-01-11T21:06:41.246Z,63.63
2023-01-11T21:09:09.859Z,63.11
2023-01-11T21:14:04.431Z,62.14
2023-01-11T21:16:31.756Z,61.86
2023-01-11T21:19:03.395Z,61.96
2023-01-11T21:21:32.147Z,62.81
2023-01-11T21:24:01.313Z,63.09
2023-01-11T21:26:29.164Z,61.52
2023-01-11T21:29:01.136Z,61.99
2023-01-11T21:31:29.518Z,61.41
2023-01-11T21:33:56.440Z,61.55
2023-01-11T21:36:25.005Z,61.57
2023-01-11T21:38:53.128Z,62.47
2023-01-11T21:41:42.478Z,62.51
2023-01-11T21:44:10.479Z,62.85
2023-01-11T21:46:37.431Z,62.01
2023-01-11T21:49:04.639Z,61.39
2023-01-11T21:51:31.670Z,61.17
2023-01-11T21:53:59.313Z,61.49
2023-01-11T21:56:26.386Z,62.67
2023-01-11T21:58:53.017Z,62.45
2023-01-11T22:01:21.653Z,62.43
2023-01-11T22:03:48.616Z,61.60
2023-01-11T22:06:15.920Z,61.25
2023-01-11T22:08:46.539Z,62.56
2023-01-11T22:11:15.112Z,62.29
2023-01-11T22:13:42.821Z,62.19
2023-01-11T22:16:14.557Z,61.93
2023-01-11T22:18:41.927Z,61.86
2023-01-11T22:21:10.122Z,61.57
2023-01-11T22:23:37.047Z,61.93
2023-01-11T22:26:11.862Z,61.56
2023-01-11T22:28:57.505Z,61.60
2023-01-11T22:31:25.473Z,62.07
2023-01-11T22:33:52.188Z,61.93
2023-01-11T22:36:19.544Z,61.66
2023-01-11T22:38:46.811Z,61.54
2023-01-11T22:41:14.787Z,61.17
2023-01-11T22:43:43.064Z,61.12
2023-01-11T22:46:15.196Z,61.47
2023-01-11T22:48:41.809Z,62.13
2023-01-11T22:51:10.260Z,62.00
2023-01-11T22:53:41.937Z,61.54
2023-01-11T22:56:09.582Z,62.32
2023-01-11T22:58:36.546Z,61.72
2023-01-11T23:01:13.401Z,62.07
2023-01-11T23:03:41.015Z,61.82
2023-01-11T23:06:08.750Z,60.95
2023-01-11T23:08:41.527Z,61.07
2023-01-11T23:11:10.869Z,62.42
2023-01-11T23:13:52.568Z,61.06
2023-01-11T23:16:19.746Z,61.22
2023-01-11T23:18:46.339Z,62.04
2023-01-11T23:21:12.877Z,61.49
2023-01-11T23:23:40.227Z,61.83
2023-01-11T23:26:07.604Z,62.03
2023-01-11T23:28:34.986Z,61.43
2023-01-11T23:31:12.459Z,60.96
2023-01-11T23:33:39.007Z,60.60
2023-01-11T23:36:06.035Z,60.98
2023-01-11T23:38:32.881Z,61.60
2023-01-11T23:41:29.636Z,63.12
2023-01-11T23:43:56.644Z,63.84
2023-01-11T23:46:42.480Z,64.39
2023-01-11T23:49:10.396Z,64.50
2023-01-11T23:51:37.722Z,63.00
2023-01-11T23:54:05.457Z,62.79
2023-01-11T23:56:33.276Z,64.74
2023-01-11T23:59:00.167Z,65.41
